createdAt,value
2018-07-12T00:01:39.863Z,15.60
2018-07-12T00:02:43.655Z,15.60
2018-07-12T00:03:47.464Z,15.60
2018-07-12T00:04:51.255Z,15.60
2018-07-12T00:05:55.054Z,15.60
2018-07-12T00:06:59.074Z,15.60
2018-07-12T00:08:02.978Z,15.60
2018-07-12T00:09:06.720Z,15.60
2018-07-12T00:10:10.561Z,15.50
2018-07-12T00:11:14.479Z,15.50
2018-07-12T00:12:18.265Z,15.50
2018-07-12T00:13:22.083Z,15.50
2018-07-12T00:14:25.932Z,15.50
2018-07-12T00:15:30.098Z,15.40
2018-07-12T00:16:33.881Z,15.40
2018-07-12T00:17:37.698Z,15.40
2018-07-12T00:18:41.490Z,15.30
2018-07-12T00:19:45.299Z,15.30
2018-07-12T00:20:49.510Z,15.30
2018-07-12T00:21:53.302Z,15.30
2018-07-12T00:22:57.112Z,15.20
2018-07-12T00:24:00.911Z,15.20
2018-07-12T00:25:04.715Z,15.20
2018-07-12T00:26:08.497Z,15.20
2018-07-12T00:27:12.310Z,15.20
2018-07-12T00:28:16.285Z,15.20
2018-07-12T00:29:20.226Z,15.20
2018-07-12T00:30:24.114Z,15.20
2018-07-12T00:31:27.917Z,15.20
2018-07-12T00:32:31.710Z,15.20
2018-07-12T00:33:35.942Z,15.10
2018-07-12T00:34:39.725Z,15.10
2018-07-12T00:35:43.543Z,15.10
2018-07-12T00:37:51.846Z,15.10
2018-07-12T00:38:56.034Z,15.10
2018-07-12T00:39:59.871Z,15.10
2018-07-12T00:41:03.667Z,15.00
2018-07-12T00:42:07.581Z,15.10
2018-07-12T00:43:11.381Z,15.10
2018-07-12T00:45:19.373Z,15.00
2018-07-12T00:46:23.177Z,15.00
2018-07-12T00:47:27.390Z,14.90
2018-07-12T00:48:31.309Z,15.00
2018-07-12T00:49:35.212Z,15.00
2018-07-12T00:50:39.013Z,15.00
2018-07-12T00:51:43.221Z,15.00
2018-07-12T00:52:47.130Z,15.00
2018-07-12T00:53:50.925Z,15.00
2018-07-12T00:54:54.728Z,15.10
2018-07-12T00:55:58.514Z,15.10
2018-07-12T00:57:02.326Z,15.20
2018-07-12T00:58:06.193Z,15.10
2018-07-12T00:59:10.143Z,15.10
2018-07-12T01:00:13.938Z,15.10
2018-07-12T01:02:21.850Z,15.00
2018-07-12T01:04:29.972Z,15.00
2018-07-12T01:05:33.868Z,14.90
2018-07-12T01:06:37.609Z,14.90
2018-07-12T01:07:41.453Z,14.90
2018-07-12T01:08:45.261Z,14.90
2018-07-12T01:09:49.173Z,14.90
2018-07-12T01:10:53.479Z,14.90
2018-07-12T01:11:57.273Z,14.90
2018-07-12T01:13:01.296Z,14.90
2018-07-12T01:14:05.670Z,14.90
2018-07-12T01:15:09.613Z,14.90
2018-07-12T01:16:13.403Z,14.90
2018-07-12T01:17:17.318Z,14.90
2018-07-12T01:18:21.120Z,14.90
2018-07-12T01:19:24.917Z,14.90
2018-07-12T01:20:28.706Z,14.90
2018-07-12T01:21:32.605Z,14.90
2018-07-12T01:22:36.421Z,14.90
2018-07-12T01:23:40.225Z,14.90
2018-07-12T01:24:44.026Z,14.90
2018-07-12T01:25:47.871Z,14.90
2018-07-12T01:26:51.730Z,14.90
2018-07-12T01:28:59.525Z,14.80
2018-07-12T01:30:03.340Z,14.80
2018-07-12T01:31:07.140Z,14.80
2018-07-12T01:32:10.976Z,14.80
2018-07-12T01:33:14.844Z,14.80
2018-07-12T01:34:19.158Z,14.80
2018-07-12T01:35:23.015Z,14.80
2018-07-12T01:36:26.862Z,14.70
2018-07-12T01:37:30.656Z,14.70
2018-07-12T01:38:34.464Z,14.80
2018-07-12T01:39:38.322Z,14.70
2018-07-12T01:40:42.171Z,14.70
2018-07-12T01:41:45.949Z,14.70
2018-07-12T01:42:49.768Z,14.60
2018-07-12T01:43:53.574Z,14.60
2018-07-12T01:44:57.374Z,14.60
2018-07-12T01:46:01.173Z,14.60
2018-07-12T01:47:04.963Z,14.60
2018-07-12T01:48:08.758Z,14.50
2018-07-12T01:49:12.563Z,14.60
2018-07-12T01:50:16.481Z,14.60
2018-07-12T01:51:20.279Z,14.50
2018-07-12T01:52:24.289Z,14.60
2018-07-12T01:53:28.088Z,14.60
2018-07-12T01:54:31.875Z,14.60
2018-07-12T01:55:35.676Z,14.60
2018-07-12T01:56:39.593Z,14.60
2018-07-12T01:57:43.382Z,14.60
2018-07-12T01:59:56.077Z,14.60
2018-07-12T02:01:00.022Z,14.60
2018-07-12T02:02:03.811Z,14.60
2018-07-12T02:04:11.619Z,14.60
2018-07-12T02:05:15.414Z,14.60
2018-07-12T02:06:19.226Z,14.60
2018-07-12T02:08:27.755Z,14.60
2018-07-12T02:09:31.555Z,14.60
2018-07-12T02:10:35.355Z,14.60
2018-07-12T02:11:39.158Z,14.60
2018-07-12T02:12:43.251Z,14.70
2018-07-12T02:13:47.111Z,14.70
2018-07-12T02:14:50.967Z,14.60
2018-07-12T02:15:54.757Z,14.60
2018-07-12T02:16:58.613Z,14.60
2018-07-12T02:18:02.476Z,14.60
2018-07-12T02:19:06.279Z,14.60
2018-07-12T02:20:10.388Z,14.60
2018-07-12T02:21:14.612Z,14.60
2018-07-12T02:22:18.364Z,14.60
2018-07-12T02:23:22.167Z,14.60
2018-07-12T02:24:25.981Z,14.60
2018-07-12T02:26:39.019Z,14.70
2018-07-12T02:27:42.856Z,14.70
2018-07-12T02:28:46.645Z,14.70
2018-07-12T02:29:50.429Z,14.70
2018-07-12T02:30:54.233Z,14.70
2018-07-12T02:31:58.136Z,14.70
2018-07-12T02:33:01.929Z,14.80
2018-07-12T02:34:05.924Z,14.80
2018-07-12T02:35:09.779Z,14.80
2018-07-12T02:36:13.645Z,14.80
2018-07-12T02:37:17.848Z,14.80
2018-07-12T02:38:21.658Z,14.80
2018-07-12T02:40:29.570Z,14.80
2018-07-12T02:41:33.362Z,14.80
2018-07-12T02:42:37.173Z,14.80
2018-07-12T02:43:40.959Z,14.80
2018-07-12T02:44:44.770Z,14.80
2018-07-12T02:45:48.779Z,14.80
2018-07-12T02:46:52.567Z,14.80
2018-07-12T02:47:56.469Z,14.80
2018-07-12T02:49:00.283Z,14.80
2018-07-12T02:50:04.085Z,14.80
2018-07-12T02:51:08.042Z,14.80
2018-07-12T02:52:11.874Z,14.80
2018-07-12T02:53:15.690Z,14.80
2018-07-12T02:54:19.495Z,14.80
2018-07-12T02:55:23.294Z,14.80
2018-07-12T02:56:27.097Z,14.90
2018-07-12T02:58:35.113Z,14.80
2018-07-12T02:59:38.895Z,14.90
2018-07-12T03:00:42.708Z,14.90
2018-07-12T03:01:46.918Z,14.90
2018-07-12T03:02:50.716Z,14.90
2018-07-12T03:03:54.621Z,14.90
2018-07-12T03:04:58.423Z,14.90
2018-07-12T03:06:02.216Z,14.90
2018-07-12T03:07:06.015Z,14.90
2018-07-12T03:08:10.283Z,14.90
2018-07-12T03:09:14.140Z,14.80
2018-07-12T03:10:18.040Z,14.80
2018-07-12T03:11:21.845Z,14.90
2018-07-12T03:13:30.370Z,14.80
2018-07-12T03:14:41.221Z,14.80
2018-07-12T03:15:45.139Z,14.80
2018-07-12T03:16:48.876Z,14.80
2018-07-12T03:17:52.638Z,14.80
2018-07-12T03:20:00.652Z,14.70
2018-07-12T03:21:04.452Z,14.70
2018-07-12T03:22:08.245Z,14.70
2018-07-12T03:23:12.055Z,14.70
2018-07-12T03:24:15.854Z,14.70
2018-07-12T03:25:19.599Z,14.70
2018-07-12T03:26:23.551Z,14.70
2018-07-12T03:27:27.361Z,14.70
2018-07-12T03:28:31.572Z,14.70
2018-07-12T03:29:35.305Z,14.70
2018-07-12T03:30:39.075Z,14.60
2018-07-12T03:31:42.857Z,14.60
2018-07-12T03:32:46.762Z,14.60
2018-07-12T03:33:50.985Z,14.60
2018-07-12T03:34:54.780Z,14.60
2018-07-12T03:35:58.639Z,14.60
2018-07-12T03:37:02.492Z,14.60
2018-07-12T03:39:41.796Z,14.50
2018-07-12T03:41:03.554Z,14.50
2018-07-12T03:43:11.683Z,14.50
2018-07-12T03:44:15.583Z,14.40
2018-07-12T03:45:19.381Z,14.40
2018-07-12T03:46:23.171Z,14.40
2018-07-12T03:47:26.968Z,14.40
2018-07-12T03:48:30.848Z,14.30
2018-07-12T03:49:34.683Z,14.40
2018-07-12T03:50:38.538Z,14.30
2018-07-12T03:51:42.379Z,14.30
2018-07-12T03:52:46.913Z,14.30
2018-07-12T03:53:50.711Z,14.30
2018-07-12T03:54:54.617Z,14.30
2018-07-12T03:55:58.402Z,14.30
2018-07-12T03:57:02.201Z,14.30
2018-07-12T03:58:06.434Z,14.40
2018-07-12T03:59:10.229Z,14.30
2018-07-12T04:00:14.943Z,14.30
2018-07-12T04:01:18.752Z,14.30
2018-07-12T04:02:22.551Z,14.30
2018-07-12T04:03:26.825Z,14.30
2018-07-12T04:04:30.596Z,14.30
2018-07-12T04:05:34.362Z,14.30
2018-07-12T04:06:38.107Z,14.30
2018-07-12T04:07:41.984Z,14.30
2018-07-12T04:08:46.130Z,14.30
2018-07-12T04:09:50.376Z,14.30
2018-07-12T04:10:54.285Z,14.30
2018-07-12T04:11:58.098Z,14.30
2018-07-12T04:13:01.896Z,14.30
2018-07-12T04:14:05.905Z,14.30
2018-07-12T04:15:09.692Z,14.30
2018-07-12T04:16:13.497Z,14.30
2018-07-12T04:17:22.930Z,14.30
2018-07-12T04:18:26.731Z,14.30
2018-07-12T04:19:30.543Z,14.30
2018-07-12T04:20:34.327Z,14.30
2018-07-12T04:21:38.097Z,14.30
2018-07-12T04:22:42.353Z,14.30
2018-07-12T04:23:46.358Z,14.30
2018-07-12T04:24:50.570Z,14.30
2018-07-12T04:25:54.313Z,14.30
2018-07-12T04:26:58.219Z,14.30
2018-07-12T04:28:02.065Z,14.40
2018-07-12T04:29:05.856Z,14.40
2018-07-12T04:30:09.668Z,14.40
2018-07-12T04:31:13.478Z,14.40
2018-07-12T04:32:17.573Z,14.50
2018-07-12T04:33:21.389Z,14.50
2018-07-12T04:34:25.180Z,14.50
2018-07-12T04:35:28.989Z,14.50
2018-07-12T04:36:32.773Z,14.50
2018-07-12T04:37:37.030Z,14.60
2018-07-12T04:38:40.894Z,14.60
2018-07-12T04:39:45.005Z,14.70
2018-07-12T04:40:48.814Z,14.80
2018-07-12T04:41:52.598Z,14.90
2018-07-12T04:42:57.035Z,14.90
2018-07-12T04:44:00.799Z,15.00
2018-07-12T04:45:04.631Z,15.00
2018-07-12T04:46:08.423Z,15.10
2018-07-12T04:47:12.233Z,15.30
2018-07-12T04:48:16.114Z,15.70
2018-07-12T04:49:20.455Z,16.00
2018-07-12T04:50:24.203Z,16.50
2018-07-12T04:51:28.053Z,17.00
2018-07-12T04:52:31.854Z,17.30
2018-07-12T04:53:35.757Z,17.70
2018-07-12T04:54:39.497Z,18.10
2018-07-12T04:55:43.664Z,18.50
2018-07-12T04:56:47.866Z,18.70
2018-07-12T04:57:51.662Z,19.00
2018-07-12T04:58:55.510Z,19.30
2018-07-12T04:59:59.282Z,19.30
2018-07-12T05:01:03.046Z,19.40
2018-07-12T05:02:06.829Z,19.50
2018-07-12T05:03:10.591Z,19.60
2018-07-12T05:04:14.407Z,19.80
2018-07-12T05:05:18.152Z,19.90
2018-07-12T05:06:22.277Z,19.80
2018-07-12T05:07:26.079Z,20.00
2018-07-12T05:08:29.891Z,20.00
2018-07-12T05:09:33.740Z,19.90
2018-07-12T05:10:37.598Z,19.60
2018-07-12T05:11:41.806Z,19.40
2018-07-12T05:12:45.596Z,19.00
2018-07-12T05:13:49.388Z,18.80
2018-07-12T05:14:53.214Z,18.60
2018-07-12T05:15:57.058Z,18.30
2018-07-12T05:17:01.018Z,18.10
2018-07-12T05:18:04.927Z,17.90
2018-07-12T05:19:08.814Z,17.80
2018-07-12T05:20:12.625Z,17.70
2018-07-12T05:21:16.415Z,17.70
2018-07-12T05:22:20.227Z,17.60
2018-07-12T05:23:24.084Z,17.60
2018-07-12T05:24:27.981Z,17.50
2018-07-12T05:25:31.877Z,17.50
2018-07-12T05:26:35.798Z,17.40
2018-07-12T05:27:39.641Z,17.50
2018-07-12T05:28:43.431Z,17.50
2018-07-12T05:29:47.341Z,17.50
2018-07-12T05:30:51.252Z,17.50
2018-07-12T05:31:55.039Z,17.60
2018-07-12T05:32:58.844Z,17.60
2018-07-12T05:34:02.653Z,17.70
2018-07-12T05:35:06.455Z,17.70
2018-07-12T05:36:22.981Z,17.70
2018-07-12T05:37:28.525Z,17.70
2018-07-12T05:38:34.554Z,17.60
2018-07-12T05:39:40.194Z,17.60
2018-07-12T05:40:45.839Z,17.70
2018-07-12T05:41:52.101Z,17.70
2018-07-12T05:42:57.836Z,17.70
2018-07-12T05:44:03.406Z,17.70
2018-07-12T05:45:09.019Z,17.70
2018-07-12T05:46:14.677Z,17.60
2018-07-12T05:47:20.405Z,17.70
2018-07-12T05:48:26.012Z,17.70
2018-07-12T05:49:31.565Z,17.70
2018-07-12T05:50:37.619Z,17.70
2018-07-12T05:51:43.309Z,17.80
2018-07-12T05:52:48.858Z,17.90
2018-07-12T05:53:54.598Z,17.90
2018-07-12T05:55:00.384Z,18.00
2018-07-12T05:56:05.900Z,18.00
2018-07-12T05:57:11.655Z,18.00
2018-07-12T05:58:17.089Z,18.10
2018-07-12T05:59:22.729Z,18.10
2018-07-12T06:00:28.300Z,18.10
2018-07-12T06:02:20.726Z,18.20
2018-07-12T06:03:26.323Z,18.30
2018-07-12T06:04:32.513Z,18.30
2018-07-12T06:05:38.109Z,18.30
2018-07-12T06:06:43.790Z,18.30
2018-07-12T06:07:49.711Z,18.40
2018-07-12T06:08:55.288Z,18.30
2018-07-12T06:10:01.142Z,18.40
2018-07-12T06:11:06.686Z,18.50
2018-07-12T06:12:12.224Z,18.70
2018-07-12T06:13:17.875Z,18.90
2018-07-12T06:14:23.298Z,19.00
2018-07-12T06:15:28.746Z,19.00
2018-07-12T06:16:34.847Z,19.10
2018-07-12T06:17:40.245Z,19.10
2018-07-12T06:18:45.783Z,19.00
2018-07-12T06:19:51.322Z,19.10
2018-07-12T06:20:56.904Z,19.20
2018-07-12T06:22:02.841Z,19.20
2018-07-12T06:23:08.409Z,19.30
2018-07-12T06:24:13.958Z,19.40
2018-07-12T06:25:19.646Z,19.40
2018-07-12T06:26:25.206Z,19.30
2018-07-12T06:27:30.827Z,19.20
2018-07-12T06:28:36.386Z,19.30
2018-07-12T06:29:41.969Z,19.30
2018-07-12T06:30:47.526Z,19.30
2018-07-12T06:31:53.079Z,19.40
2018-07-12T06:32:58.737Z,19.40
2018-07-12T06:34:04.302Z,19.30
2018-07-12T06:35:09.911Z,19.30
2018-07-12T06:36:15.495Z,19.40
2018-07-12T06:37:21.157Z,19.40
2018-07-12T06:38:26.775Z,19.40
2018-07-12T06:39:32.365Z,19.20
2018-07-12T06:40:37.917Z,19.20
2018-07-12T06:41:43.508Z,19.20
2018-07-12T06:42:49.118Z,19.10
2018-07-12T06:43:54.685Z,19.00
2018-07-12T06:45:00.331Z,19.10
2018-07-12T06:46:05.974Z,19.20
2018-07-12T06:47:11.504Z,19.30
2018-07-12T06:48:17.082Z,19.40
2018-07-12T06:49:23.084Z,19.60
2018-07-12T06:50:28.688Z,19.60
2018-07-12T06:51:34.531Z,19.60
2018-07-12T06:52:40.070Z,19.70
2018-07-12T06:53:45.530Z,19.70
2018-07-12T06:54:51.381Z,19.60
2018-07-12T06:55:56.863Z,19.50
2018-07-12T06:57:02.283Z,19.40
2018-07-12T06:58:07.862Z,19.40
2018-07-12T06:59:13.611Z,19.50
2018-07-12T07:00:19.242Z,19.50
2018-07-12T07:01:25.267Z,19.50
2018-07-12T07:02:30.819Z,19.60
2018-07-12T07:03:36.405Z,19.70
2018-07-12T07:04:41.985Z,19.80
2018-07-12T07:05:47.549Z,20.00
2018-07-12T07:06:53.618Z,20.10
2018-07-12T07:07:59.196Z,20.10
2018-07-12T07:09:06.315Z,20.10
2018-07-12T07:10:11.850Z,20.10
2018-07-12T07:11:17.448Z,20.10
2018-07-12T07:12:23.052Z,20.00
2018-07-12T07:13:28.647Z,20.10
2018-07-12T07:14:34.234Z,20.20
2018-07-12T07:15:39.856Z,20.10
2018-07-12T07:16:45.387Z,19.80
2018-07-12T07:17:50.964Z,19.80
2018-07-12T07:18:56.559Z,19.80
2018-07-12T07:20:02.124Z,19.70
2018-07-12T07:21:07.788Z,19.70
2018-07-12T07:22:13.343Z,19.70
2018-07-12T07:23:18.967Z,19.70
2018-07-12T07:24:24.941Z,19.60
2018-07-12T07:25:30.492Z,19.70
2018-07-12T07:26:36.087Z,19.70
2018-07-12T07:27:41.630Z,19.60
2018-07-12T07:28:47.198Z,19.60
2018-07-12T07:29:53.084Z,19.70
2018-07-12T07:30:58.653Z,19.70
2018-07-12T07:32:04.218Z,19.70
2018-07-12T07:33:09.785Z,19.80
2018-07-12T07:34:15.366Z,19.90
2018-07-12T07:35:20.950Z,19.90
2018-07-12T07:36:26.542Z,20.00
2018-07-12T07:37:32.103Z,20.00
2018-07-12T07:38:37.732Z,20.00
2018-07-12T07:39:43.356Z,20.10
2018-07-12T07:40:48.955Z,20.00
2018-07-12T07:41:54.573Z,19.90
2018-07-12T07:43:00.193Z,19.80
2018-07-12T07:44:06.113Z,19.90
2018-07-12T07:45:11.732Z,19.90
2018-07-12T07:46:17.301Z,20.10
2018-07-12T07:47:22.860Z,20.20
2018-07-12T07:48:28.435Z,20.30
2018-07-12T07:49:34.021Z,20.30
2018-07-12T07:50:39.650Z,20.30
2018-07-12T07:51:45.219Z,20.40
2018-07-12T07:52:50.817Z,20.50
2018-07-12T07:53:56.407Z,20.50
2018-07-12T07:55:01.990Z,20.60
2018-07-12T07:56:07.753Z,20.70
2018-07-12T07:57:13.360Z,20.70
2018-07-12T07:58:19.685Z,20.70
2018-07-12T07:59:25.347Z,20.60
2018-07-12T08:00:30.902Z,20.70
2018-07-12T08:01:36.428Z,20.70
2018-07-12T08:02:41.992Z,20.90
2018-07-12T08:03:47.559Z,21.00
2018-07-12T08:04:53.174Z,21.10
2018-07-12T08:05:58.737Z,21.00
2018-07-12T08:07:04.359Z,21.10
2018-07-12T08:08:09.932Z,21.20
2018-07-12T08:09:15.483Z,21.20
2018-07-12T08:10:21.489Z,21.20
2018-07-12T08:11:27.166Z,21.30
2018-07-12T08:12:32.745Z,21.30
2018-07-12T08:13:38.306Z,21.20
2018-07-12T08:14:43.940Z,21.30
2018-07-12T08:15:49.832Z,21.20
2018-07-12T08:16:55.416Z,21.20
2018-07-12T08:18:01.009Z,21.20
2018-07-12T08:19:06.608Z,21.30
2018-07-12T08:20:12.240Z,21.40
2018-07-12T08:21:18.166Z,21.40
2018-07-12T08:22:23.792Z,21.40
2018-07-12T08:23:29.413Z,21.50
2018-07-12T08:24:35.619Z,21.60
2018-07-12T08:25:41.209Z,21.60
2018-07-12T08:26:46.773Z,21.50
2018-07-12T08:28:09.381Z,21.50
2018-07-12T08:29:14.942Z,21.50
2018-07-12T08:30:20.498Z,21.60
2018-07-12T08:31:26.075Z,21.60
2018-07-12T08:32:31.697Z,21.50
2018-07-12T08:33:37.266Z,21.40
2018-07-12T08:34:42.838Z,21.50
2018-07-12T08:35:48.689Z,21.40
2018-07-12T08:36:54.298Z,21.20
2018-07-12T08:37:59.867Z,21.30
2018-07-12T08:39:06.540Z,21.30
2018-07-12T08:40:12.113Z,21.30
2018-07-12T08:41:17.695Z,21.40
2018-07-12T08:42:23.280Z,21.50
2018-07-12T08:43:28.906Z,21.60
2018-07-12T08:44:34.882Z,21.70
2018-07-12T08:45:40.434Z,21.70
2018-07-12T08:46:46.057Z,21.60
2018-07-12T08:47:51.606Z,21.80
2018-07-12T08:48:57.166Z,21.90
2018-07-12T08:50:03.121Z,21.90
2018-07-12T08:51:08.691Z,22.00
2018-07-12T08:52:14.271Z,22.00
2018-07-12T08:53:19.848Z,22.10
2018-07-12T08:54:25.461Z,22.10
2018-07-12T08:55:31.110Z,22.00
2018-07-12T08:56:36.696Z,22.10
2018-07-12T08:57:42.247Z,22.20
2018-07-12T08:58:47.809Z,22.20
2018-07-12T08:59:53.368Z,22.30
2018-07-12T09:00:58.940Z,22.20
2018-07-12T09:02:04.530Z,22.40
2018-07-12T09:03:10.117Z,22.40
2018-07-12T09:04:15.671Z,22.40
2018-07-12T09:05:21.609Z,22.30
2018-07-12T09:06:27.209Z,22.50
2018-07-12T09:07:39.385Z,22.50
2018-07-12T09:08:44.945Z,22.50
2018-07-12T09:09:50.514Z,22.50
2018-07-12T09:10:56.215Z,22.60
2018-07-12T09:12:01.775Z,22.70
2018-07-12T09:13:07.419Z,22.70
2018-07-12T09:14:13.012Z,22.80
2018-07-12T09:15:18.616Z,22.80
2018-07-12T09:16:24.244Z,22.80
2018-07-12T09:17:29.878Z,22.70
2018-07-12T09:18:35.430Z,22.70
2018-07-12T09:20:46.211Z,22.60
2018-07-12T09:21:51.834Z,22.60
2018-07-12T09:24:02.651Z,22.70
2018-07-12T09:25:08.270Z,22.80
2018-07-12T09:26:14.282Z,22.80
2018-07-12T09:27:19.850Z,22.90
2018-07-12T09:28:25.416Z,23.00
2018-07-12T09:29:30.992Z,22.90
2018-07-12T09:30:36.513Z,23.00
2018-07-12T09:31:42.142Z,22.90
2018-07-12T09:32:47.706Z,23.00
2018-07-12T09:33:53.338Z,23.00
2018-07-12T09:34:58.952Z,23.00
2018-07-12T09:36:04.526Z,23.00
2018-07-12T09:37:10.199Z,23.00
2018-07-12T09:38:34.368Z,23.00
2018-07-12T09:39:39.905Z,23.10
2018-07-12T09:40:45.517Z,23.00
2018-07-12T09:41:51.083Z,23.10
2018-07-12T09:42:56.694Z,23.10
2018-07-12T09:44:02.344Z,23.10
2018-07-12T09:45:07.936Z,23.10
2018-07-12T09:46:13.545Z,23.10
2018-07-12T09:47:19.186Z,23.00
2018-07-12T09:48:24.677Z,23.10
2018-07-12T09:49:30.317Z,23.10
2018-07-12T09:50:35.893Z,23.20
2018-07-12T09:51:41.451Z,23.20
2018-07-12T09:52:47.018Z,23.10
2018-07-12T09:53:52.554Z,23.00
2018-07-12T09:54:58.356Z,23.00
2018-07-12T09:56:04.043Z,23.10
2018-07-12T09:57:26.550Z,23.20
2018-07-12T09:58:32.187Z,23.20
2018-07-12T09:59:37.723Z,23.30
2018-07-12T10:00:48.843Z,23.20
2018-07-12T10:01:59.629Z,23.20
2018-07-12T10:03:10.197Z,23.30
2018-07-12T10:04:15.633Z,23.40
2018-07-12T10:05:26.369Z,23.50
2018-07-12T10:06:32.721Z,23.70
2018-07-12T10:07:47.099Z,23.80
2018-07-12T10:08:57.745Z,23.70
2018-07-12T10:10:03.189Z,23.70
2018-07-12T10:11:11.435Z,23.70
2018-07-12T10:12:22.165Z,23.70
2018-07-12T10:13:31.697Z,23.80
2018-07-12T10:14:42.444Z,23.80
2018-07-12T10:17:02.298Z,23.80
2018-07-12T10:18:12.827Z,23.90
2018-07-12T10:19:18.229Z,24.00
2018-07-12T10:20:23.789Z,24.00
2018-07-12T10:21:29.432Z,24.00
2018-07-12T10:22:34.977Z,24.00
2018-07-12T10:23:40.926Z,24.10
2018-07-12T10:24:46.386Z,24.10
2018-07-12T10:25:51.871Z,24.10
2018-07-12T10:26:57.299Z,24.20
2018-07-12T10:28:02.725Z,24.20
2018-07-12T10:29:08.181Z,24.30
2018-07-12T10:30:13.669Z,24.50
2018-07-12T10:31:19.143Z,24.60
2018-07-12T10:32:24.586Z,24.80
2018-07-12T10:33:30.027Z,24.80
2018-07-12T10:34:35.617Z,24.90
2018-07-12T10:35:41.059Z,24.90
2018-07-12T10:36:46.535Z,24.90
2018-07-12T10:37:52.119Z,24.90
2018-07-12T10:38:57.597Z,25.00
2018-07-12T10:40:03.473Z,25.00
2018-07-12T10:41:08.931Z,25.10
2018-07-12T10:42:14.373Z,25.10
2018-07-12T10:43:19.836Z,25.30
2018-07-12T10:44:25.276Z,25.40
2018-07-12T10:45:30.727Z,25.40
2018-07-12T10:46:36.125Z,25.50
2018-07-12T10:47:41.628Z,25.50
2018-07-12T10:48:47.067Z,25.40
2018-07-12T10:49:52.474Z,25.50
2018-07-12T10:50:57.908Z,25.50
2018-07-12T10:52:03.361Z,25.50
2018-07-12T10:53:08.865Z,25.60
2018-07-12T10:54:14.291Z,25.60
2018-07-12T10:55:19.759Z,25.60
2018-07-12T10:56:25.198Z,25.60
2018-07-12T10:57:30.693Z,25.60
2018-07-12T10:58:36.136Z,25.50
2018-07-12T10:59:41.728Z,25.40
2018-07-12T11:00:47.160Z,25.50
2018-07-12T11:01:52.650Z,25.60
2018-07-12T11:02:58.118Z,25.50
2018-07-12T11:04:03.702Z,25.60
2018-07-12T11:05:09.198Z,25.70
2018-07-12T11:06:14.653Z,25.80
2018-07-12T11:07:20.093Z,25.70
2018-07-12T11:08:25.526Z,25.90
2018-07-12T11:09:31.097Z,25.90
2018-07-12T11:10:37.226Z,25.90
2018-07-12T11:11:42.696Z,26.00
2018-07-12T11:14:03.053Z,26.20
2018-07-12T11:15:08.519Z,26.10
2018-07-12T11:16:13.958Z,26.20
2018-07-12T11:17:19.381Z,26.30
2018-07-12T11:18:24.814Z,26.30
2018-07-12T11:19:30.299Z,26.30
2018-07-12T11:20:35.764Z,26.40
2018-07-12T11:21:41.191Z,26.60
2018-07-12T11:22:46.602Z,26.50
2018-07-12T11:23:52.033Z,26.40
2018-07-12T11:24:57.873Z,26.20
2018-07-12T11:26:03.372Z,26.00
2018-07-12T11:28:13.862Z,26.00
2018-07-12T11:29:25.335Z,26.10
2018-07-12T11:30:30.846Z,26.30
2018-07-12T11:31:36.341Z,26.30
2018-07-12T11:32:41.757Z,26.30
2018-07-12T11:33:49.336Z,26.40
2018-07-12T11:34:54.793Z,26.50
2018-07-12T11:36:00.290Z,26.80
2018-07-12T11:37:05.754Z,26.80
2018-07-12T11:38:11.193Z,26.70
2018-07-12T11:39:16.987Z,26.60
2018-07-12T11:40:22.420Z,26.50
2018-07-12T11:41:27.878Z,26.60
2018-07-12T11:42:33.318Z,26.60
2018-07-12T11:43:38.813Z,26.70
2018-07-12T11:44:44.349Z,26.90
2018-07-12T11:45:49.738Z,27.10
2018-07-12T11:46:55.157Z,27.10
2018-07-12T11:48:00.718Z,27.10
2018-07-12T11:49:06.189Z,27.10
2018-07-12T11:51:16.775Z,27.00
2018-07-12T11:52:22.237Z,27.10
2018-07-12T11:53:28.158Z,26.90
2018-07-12T11:54:33.590Z,26.80
2018-07-12T11:55:39.059Z,26.50
2018-07-12T11:56:44.519Z,26.40
2018-07-12T11:57:49.941Z,26.30
2018-07-12T11:58:55.356Z,26.20
2018-07-12T12:01:05.983Z,26.40
2018-07-12T12:02:11.793Z,26.60
2018-07-12T12:03:17.529Z,26.70
2018-07-12T12:04:23.071Z,26.80
2018-07-12T12:05:28.547Z,26.90
2018-07-12T12:06:33.999Z,27.00
2018-07-12T12:07:39.467Z,27.20
2018-07-12T12:08:44.929Z,27.30
2018-07-12T12:09:50.401Z,27.40
2018-07-12T12:10:55.901Z,27.30
2018-07-12T12:12:01.374Z,27.30
2018-07-12T12:13:06.822Z,27.10
2018-07-12T12:14:12.277Z,27.00
2018-07-12T12:15:17.753Z,26.90
2018-07-12T12:16:23.197Z,26.80
2018-07-12T12:17:28.614Z,26.80
2018-07-12T12:18:34.069Z,26.90
2018-07-12T12:19:39.510Z,26.90
2018-07-12T12:20:44.945Z,27.10
2018-07-12T12:21:50.357Z,27.20
2018-07-12T12:22:55.846Z,27.50
2018-07-12T12:24:01.592Z,27.60
2018-07-12T12:25:07.076Z,27.70
2018-07-12T12:26:12.554Z,27.80
2018-07-12T12:27:17.997Z,28.00
2018-07-12T12:28:23.439Z,28.00
2018-07-12T12:29:28.880Z,28.10
2018-07-12T12:30:34.330Z,28.30
2018-07-12T12:32:44.947Z,28.40
2018-07-12T12:33:50.501Z,28.40
2018-07-12T12:34:55.946Z,28.20
2018-07-12T12:36:01.435Z,28.20
2018-07-12T12:37:06.903Z,28.30
2018-07-12T12:38:12.336Z,28.20
2018-07-12T12:39:17.806Z,28.10
2018-07-12T12:40:23.594Z,28.10
2018-07-12T12:41:29.038Z,28.10
2018-07-12T12:42:34.547Z,28.00
2018-07-12T12:43:40.377Z,27.90
2018-07-12T12:44:45.862Z,27.80
2018-07-12T12:45:51.378Z,27.90
2018-07-12T12:46:56.868Z,28.10
2018-07-12T12:48:02.321Z,28.20
2018-07-12T12:49:07.777Z,28.30
2018-07-12T12:50:13.258Z,28.20
2018-07-12T12:51:18.759Z,28.10
2018-07-12T12:52:24.166Z,28.10
2018-07-12T12:53:29.633Z,28.00
2018-07-12T12:54:35.055Z,27.80
2018-07-12T12:55:40.937Z,27.70
2018-07-12T12:56:46.389Z,27.40
2018-07-12T12:57:51.792Z,27.20
2018-07-12T12:58:57.278Z,27.10
2018-07-12T13:00:02.792Z,26.80
2018-07-12T13:01:08.215Z,26.80
2018-07-12T13:02:13.709Z,26.70
2018-07-12T13:03:19.622Z,26.60
2018-07-12T13:04:25.079Z,26.60
2018-07-12T13:05:30.563Z,26.40
2018-07-12T13:06:36.013Z,26.30
2018-07-12T13:07:41.435Z,26.30
2018-07-12T13:08:46.901Z,26.20
2018-07-12T13:09:52.395Z,26.10
2018-07-12T13:10:57.861Z,26.10
2018-07-12T13:12:03.309Z,26.00
2018-07-12T13:13:08.774Z,26.00
2018-07-12T13:14:14.462Z,26.00
2018-07-12T13:15:19.930Z,26.00
2018-07-12T13:16:25.412Z,25.90
2018-07-12T13:17:30.922Z,25.80
2018-07-12T13:18:36.360Z,25.80
2018-07-12T13:19:41.791Z,25.70
2018-07-12T13:20:47.273Z,25.80
2018-07-12T13:21:52.706Z,25.70
2018-07-12T13:22:58.153Z,25.70
2018-07-12T13:24:03.634Z,25.60
2018-07-12T13:25:09.116Z,25.70
2018-07-12T13:26:14.542Z,25.80
2018-07-12T13:27:19.994Z,25.80
2018-07-12T13:28:25.492Z,25.70
2018-07-12T13:30:36.036Z,25.70
2018-07-12T13:31:41.491Z,25.60
2018-07-12T13:32:46.937Z,25.70
2018-07-12T13:33:52.737Z,25.70
2018-07-12T13:34:58.827Z,25.60
2018-07-12T13:36:04.287Z,25.70
2018-07-12T13:37:09.749Z,25.60
2018-07-12T13:38:15.157Z,25.40
2018-07-12T13:39:20.641Z,25.40
2018-07-12T13:40:26.115Z,25.50
2018-07-12T13:41:31.579Z,25.70
2018-07-12T13:42:37.333Z,25.70
2018-07-12T13:43:42.853Z,25.80
2018-07-12T13:44:48.321Z,25.80
2018-07-12T13:45:53.799Z,25.90
2018-07-12T13:46:59.242Z,26.10
2018-07-12T13:48:04.701Z,26.30
2018-07-12T13:49:10.494Z,26.40
2018-07-12T13:50:15.943Z,26.60
2018-07-12T13:51:21.395Z,26.80
2018-07-12T13:52:26.886Z,26.80
2018-07-12T13:53:32.319Z,26.80
2018-07-12T13:54:37.846Z,26.80
2018-07-12T13:55:43.279Z,26.80
2018-07-12T13:56:49.509Z,27.00
2018-07-12T13:57:55.003Z,27.10
2018-07-12T13:59:00.554Z,27.20
2018-07-12T14:00:06.494Z,27.30
2018-07-12T14:01:11.994Z,27.40
2018-07-12T14:02:17.389Z,27.40
2018-07-12T14:03:22.853Z,27.50
2018-07-12T14:04:28.319Z,27.40
2018-07-12T14:05:33.785Z,27.40
2018-07-12T14:06:39.609Z,27.50
2018-07-12T14:07:45.398Z,27.50
2018-07-12T14:08:50.823Z,27.40
2018-07-12T14:09:56.259Z,27.50
2018-07-12T14:11:01.682Z,27.50
2018-07-12T14:12:07.152Z,27.70
2018-07-12T14:13:12.596Z,27.80
2018-07-12T14:14:18.054Z,27.80
2018-07-12T14:15:23.559Z,27.90
2018-07-12T14:16:29.021Z,27.80
2018-07-12T14:17:34.434Z,27.90
2018-07-12T14:18:39.921Z,28.00
2018-07-12T14:19:45.394Z,28.00
2018-07-12T14:20:50.832Z,28.10
2018-07-12T14:21:56.238Z,28.10
2018-07-12T14:23:01.761Z,28.20
2018-07-12T14:24:07.242Z,28.20
2018-07-12T14:25:12.694Z,28.20
2018-07-12T14:26:18.134Z,28.30
2018-07-12T14:27:23.562Z,28.40